Adriatic Id — VRFP6 — position and weather

sailwx.info

Track history (hours):
 
Tides and Currents Weather Stations Pressure Air Temp Water Temp Dewpoint Dewpoint Depression Visibility Wind Speed Wind Dir Waves Ship Positions

Adriatic Id

Last reported at 2016-May-20 01:30 UTC. Time now 2016-May-26 22:32 UTC.
Position N 26°07' E 119°33'.

Length 158 m; draft 8.8 m.

Type: Cargo ship. MMSI: 477559800.

Date/timePositionNaut miles runAvg speedWind from/ knotsBaromVisibWave heightAir tempDewpointWater temp
2016-May-20 01:30N 26°07' E 119°33'5 2.5
2016-May-19 23:32N 26°03' E 119°30'0 0.0
2016-May-19 22:32N 26°03' E 119°30'0 0.0
2016-May-19 21:08N 26°03' E 119°30'0 0.0
2016-May-19 20:26N 26°03' E 119°30'0 0.0
2016-May-19 19:32N 26°03' E 119°30'0 0.0
2016-May-19 18:32N 26°03' E 119°30'0 0.0
2016-May-19 17:26N 26°03' E 119°30'0 0.0
2016-May-19 16:32N 26°03' E 119°30'0 0.0
2016-May-19 15:26N 26°03' E 119°30'0 0.0
2016-May-19 14:13N 26°03' E 119°30'0 0.0
2016-May-19 13:19N 26°03' E 119°30'0 0.0
2016-May-19 11:31N 26°03' E 119°30'  
2016-May-16 00:33N 26°04' E 119°49'13 9.1
2016-May-15 23:07N 26°08' E 119°35'5 9.1
2016-May-15 22:33N 26°05' E 119°31'2 0.5
2016-May-15 17:30N 26°03' E 119°30'0 0.0
2016-May-15 14:18N 26°03' E 119°30'0 0.0
2016-May-15 13:30N 26°03' E 119°30'0 0.0
2016-May-15 12:24N 26°03' E 119°30'0 0.0
2016-May-15 11:30N 26°03' E 119°30'0 0.0
2016-May-15 10:24N 26°03' E 119°30'0 0.0
2016-May-15 09:18N 26°03' E 119°30'0 0.0
2016-May-15 07:06N 26°03' E 119°30'0 0.0
2016-May-15 06:30N 26°03' E 119°30'3 3.0
2016-May-15 05:33N 26°05' E 119°32'0 0.1
2016-May-15 04:33N 26°05' E 119°32'0 0.2
2016-May-15 03:33N 26°05' E 119°32'9 4.6
2016-May-15 01:33N 26°06' E 119°42'  
2016-May-10 18:12N 26°02' E 119°51'  
Track history (hours):
 
Tides and Currents Weather Stations Pressure Air Temp Water Temp Dewpoint Dewpoint Depression Visibility Wind Speed Wind Dir Waves Ship Positions

Adriatic Id

Last reported at 2016-May-20 01:30 UTC. Time now 2016-May-26 22:32 UTC.
Position N 26°07' E 119°33'.

Length 158 m; draft 8.8 m.

Type: Cargo ship. MMSI: 477559800.

Date/timePositionNaut miles runAvg speedWind from/ knotsBaromVisibWave heightAir tempDewpointWater temp
2016-May-20 01:30N 26°07' E 119°33'5 2.5
2016-May-19 23:32N 26°03' E 119°30'0 0.0
2016-May-19 22:32N 26°03' E 119°30'0 0.0
2016-May-19 21:08N 26°03' E 119°30'0 0.0
2016-May-19 20:26N 26°03' E 119°30'0 0.0
2016-May-19 19:32N 26°03' E 119°30'0 0.0
2016-May-19 18:32N 26°03' E 119°30'0 0.0
2016-May-19 17:26N 26°03' E 119°30'0 0.0
2016-May-19 16:32N 26°03' E 119°30'0 0.0
2016-May-19 15:26N 26°03' E 119°30'0 0.0
2016-May-19 14:13N 26°03' E 119°30'0 0.0
2016-May-19 13:19N 26°03' E 119°30'0 0.0
2016-May-19 11:31N 26°03' E 119°30'  
2016-May-16 00:33N 26°04' E 119°49'13 9.1
2016-May-15 23:07N 26°08' E 119°35'5 9.1
2016-May-15 22:33N 26°05' E 119°31'2 0.5
2016-May-15 17:30N 26°03' E 119°30'0 0.0
2016-May-15 14:18N 26°03' E 119°30'0 0.0
2016-May-15 13:30N 26°03' E 119°30'0 0.0
2016-May-15 12:24N 26°03' E 119°30'0 0.0
2016-May-15 11:30N 26°03' E 119°30'0 0.0
2016-May-15 10:24N 26°03' E 119°30'0 0.0
2016-May-15 09:18N 26°03' E 119°30'0 0.0
2016-May-15 07:06N 26°03' E 119°30'0 0.0
2016-May-15 06:30N 26°03' E 119°30'3 3.0
2016-May-15 05:33N 26°05' E 119°32'0 0.1
2016-May-15 04:33N 26°05' E 119°32'0 0.2
2016-May-15 03:33N 26°05' E 119°32'9 4.6
2016-May-15 01:33N 26°06' E 119°42'  
2016-May-10 18:12N 26°02' E 119°51'  

Dump ship's entire track history